New River MCAS /H/ /Mccutcheon Fld/ Airport
KNCA : now visible

Airfield :











YOU CAN JOIN US ON...

 
LOGIN :

Register | Disclaimer

   EN    FR    IT 

 









Legend :    VFR   Marginal VFR   IFR   Intensive IFR   Very Intensive IFR
Visi :
Ceiling :
>= 8 km
>= 3000ft
5 to 8 km
1000 to 3000 ft
1500m to 5 km
500 to 1000 ft
800 to 1500m
200 to 500 ft
< 800m
< 200 ft
Symbols :   Thunderstorms  Fog  Heavy snow  Heavy precipitations  Wind > 20 kt






- Airport Elevation : 26 ft


KNCA - New River MCAS /H/ /Mccutcheon Fld/

CURRENT METAR :
  • 270156Z 19003KT 10SM CLR 27/24 A2999 RMK AO2 SLP158 T02670244

EXPIRED METARs :
  • 270056Z 19005KT 10SM CLR 27/25 A2997 RMK AO2 SLP150 T02670250
  • 262356Z 18007KT 10SM CLR 28/24 A2996 RMK AO2 SLP147 T02780244 10317 20278 55001

TAF TAF KNCA
Valid from the 26 at 21:00 until the 27 at 21:00 UTC


2621/2721 19010KT 9999 FEW025 SCT035 BKN080 QNH2993INS
FM270600 22010KT 9999 BKN030 QNH2997INS
TEMPO 2709/2712 VRB06KT 0400 BCFG VV001
BECMG 2714/2716 18010KT 9999 SCT030 QNH2998INS T24/2709Z T34/2719Z
KZDC FIR / North America



MET'MAP, your aeronautical weather chart ! - Copyright ORBIFLY December 2007 - Disclaimer

ORBIFLY MET'MAP TEAM :

Programming & Development : Alexandra Zaïnal
Concept & original design : Baudouin d'Aumeries
Assistance for programming : Marc-Olivier Méhu
Technical & hardware support : Manuel Goepfert

Contact : metmap@orbifly.com




SOURCES & CREDITS :

   NOAA       Earth
Advisory